createdAt,value
2022-10-04T00:00:41.410Z,5.63
2022-10-04T00:03:11.387Z,6.05
2022-10-04T00:05:41.208Z,6.15
2022-10-04T00:08:24.888Z,5.35
2022-10-04T00:11:02.862Z,6.13
2022-10-04T00:13:32.369Z,6.47
2022-10-04T00:15:59.049Z,6.20
2022-10-04T00:18:29.846Z,5.72
2022-10-04T00:21:00.720Z,6.03
2022-10-04T00:23:40.171Z,6.00
2022-10-04T00:26:13.638Z,5.93
2022-10-04T00:28:46.408Z,6.07
2022-10-04T00:31:22.752Z,6.47
2022-10-04T00:33:52.701Z,6.55
2022-10-04T00:36:38.670Z,6.18
2022-10-04T00:39:39.701Z,6.43
2022-10-04T00:42:35.102Z,6.22
2022-10-04T00:45:11.298Z,5.88
2022-10-04T00:48:05.167Z,6.53
2022-10-04T00:50:36.111Z,6.60
2022-10-04T00:53:12.539Z,6.95
2022-10-04T00:55:45.858Z,6.35
2022-10-04T00:58:18.725Z,5.72
2022-10-04T01:00:48.802Z,6.28
2022-10-04T01:03:20.934Z,6.20
2022-10-04T01:05:52.534Z,6.30
2022-10-04T01:08:25.654Z,5.90
2022-10-04T01:10:56.032Z,6.78
2022-10-04T01:13:28.143Z,6.15
2022-10-04T01:16:00.187Z,5.85
2022-10-04T01:18:32.722Z,5.60
2022-10-04T01:23:42.821Z,5.75
2022-10-04T01:26:37.173Z,5.97
2022-10-04T01:29:08.085Z,6.30
2022-10-04T01:31:36.945Z,6.20
2022-10-04T01:34:04.858Z,6.47
2022-10-04T01:36:32.189Z,6.25
2022-10-04T01:39:00.578Z,5.97
2022-10-04T01:41:31.788Z,6.15
2022-10-04T01:44:02.791Z,5.88
2022-10-04T01:46:34.726Z,5.97
2022-10-04T01:49:05.136Z,5.50
2022-10-04T01:51:36.605Z,5.60
2022-10-04T01:54:08.983Z,6.20
2022-10-04T01:56:44.058Z,6.65
2022-10-04T01:59:16.955Z,6.03
2022-10-04T02:01:50.243Z,6.65
2022-10-04T02:04:22.279Z,6.00
2022-10-04T02:09:23.627Z,6.20
2022-10-04T02:11:52.760Z,6.22
2022-10-04T02:14:22.107Z,6.60
2022-10-04T02:16:50.304Z,6.10
2022-10-04T02:19:17.137Z,6.30
2022-10-04T02:21:45.161Z,6.53
2022-10-04T02:24:13.044Z,6.63
2022-10-04T02:26:41.201Z,7.10
2022-10-04T02:29:09.248Z,6.88
2022-10-04T02:31:38.543Z,7.15
2022-10-04T02:34:05.596Z,5.95
2022-10-04T02:36:32.667Z,6.70
2022-10-04T02:39:02.693Z,6.53
2022-10-04T02:41:34.106Z,6.28
2022-10-04T02:44:09.250Z,6.90
2022-10-04T02:46:44.181Z,6.60
2022-10-04T02:49:19.829Z,6.03
2022-10-04T02:51:52.582Z,6.43
2022-10-04T02:54:27.531Z,6.00
2022-10-04T02:56:55.876Z,6.03
2022-10-04T02:59:24.014Z,6.38
2022-10-04T03:01:53.543Z,5.85
2022-10-04T03:04:24.264Z,6.20
2022-10-04T03:06:53.408Z,6.40
2022-10-04T03:09:25.038Z,6.60
2022-10-04T03:11:54.594Z,6.47
2022-10-04T03:14:25.180Z,5.97
2022-10-04T03:16:54.471Z,7.13
2022-10-04T03:19:22.885Z,6.53
2022-10-04T03:21:53.085Z,6.00
2022-10-04T03:24:23.317Z,6.70
2022-10-04T03:26:54.669Z,5.82
2022-10-04T03:29:27.089Z,6.28
2022-10-04T03:31:56.096Z,6.60
2022-10-04T03:34:25.442Z,6.22
2022-10-04T03:36:54.162Z,6.38
2022-10-04T03:39:30.542Z,6.15
2022-10-04T03:41:57.678Z,6.45
2022-10-04T03:44:26.076Z,6.05
2022-10-04T03:46:52.687Z,6.30
2022-10-04T03:49:33.447Z,6.55
2022-10-04T03:52:00.947Z,6.82
2022-10-04T03:54:28.694Z,6.47
2022-10-04T03:56:56.531Z,6.72
2022-10-04T03:59:27.041Z,6.55
2022-10-04T04:02:04.082Z,5.82
2022-10-04T04:04:41.022Z,5.93
2022-10-04T04:07:13.533Z,5.63
2022-10-04T04:09:44.059Z,5.90
2022-10-04T04:12:16.503Z,5.78
2022-10-04T04:17:33.231Z,5.53
2022-10-04T04:20:07.173Z,5.45
2022-10-04T04:22:36.041Z,5.43
2022-10-04T04:25:05.853Z,5.70
2022-10-04T04:27:36.948Z,5.30
2022-10-04T04:30:06.847Z,5.68
2022-10-04T04:32:38.454Z,5.45
2022-10-04T04:35:06.852Z,6.00
2022-10-04T04:37:34.537Z,5.72
2022-10-04T04:40:18.937Z,5.65
2022-10-04T04:42:47.449Z,5.22
2022-10-04T04:45:18.881Z,5.80
2022-10-04T04:47:48.055Z,5.90
2022-10-04T04:50:17.023Z,5.60
2022-10-04T04:52:47.077Z,5.57
2022-10-04T04:55:18.523Z,5.18
2022-10-04T04:57:45.944Z,6.25
2022-10-04T05:00:19.285Z,5.55
2022-10-04T05:02:58.155Z,6.07
2022-10-04T05:05:27.514Z,6.35
2022-10-04T05:08:14.941Z,5.38
2022-10-04T05:10:45.466Z,5.70
2022-10-04T05:13:14.060Z,5.72
2022-10-04T05:15:42.526Z,5.78
2022-10-04T05:18:27.515Z,5.75
2022-10-04T05:20:55.333Z,5.63
2022-10-04T05:23:22.382Z,5.90
2022-10-04T05:25:50.197Z,5.45
2022-10-04T05:28:17.501Z,6.32
2022-10-04T05:30:56.493Z,6.15
2022-10-04T05:33:36.575Z,5.70
2022-10-04T05:36:39.242Z,5.93
2022-10-04T05:39:12.410Z,5.90
2022-10-04T05:41:47.586Z,6.88
2022-10-04T05:44:24.508Z,6.35
2022-10-04T05:46:53.437Z,6.30
2022-10-04T05:49:21.982Z,6.35
2022-10-04T05:51:50.679Z,6.00
2022-10-04T05:54:21.062Z,6.07
2022-10-04T05:57:01.741Z,6.63
2022-10-04T05:59:44.317Z,6.78
2022-10-04T06:04:57.946Z,6.30
2022-10-04T06:07:29.703Z,5.90
2022-10-04T06:10:08.376Z,6.63
2022-10-04T06:12:46.610Z,6.20
2022-10-04T06:15:39.420Z,6.00
2022-10-04T06:20:53.947Z,6.10
2022-10-04T06:23:22.296Z,6.30
2022-10-04T06:25:51.224Z,6.55
2022-10-04T06:28:22.904Z,6.25
2022-10-04T06:31:11.741Z,6.05
2022-10-04T06:34:05.697Z,6.82
2022-10-04T06:36:49.950Z,6.85
2022-10-04T06:39:30.890Z,6.95
2022-10-04T06:42:23.249Z,6.38
2022-10-04T06:45:09.917Z,6.88
2022-10-04T06:48:00.203Z,6.57
2022-10-04T06:50:39.310Z,6.38
2022-10-04T06:53:17.368Z,7.32
2022-10-04T06:56:14.401Z,6.22
2022-10-04T06:58:55.372Z,7.50
2022-10-04T07:01:29.606Z,6.88
2022-10-04T07:04:07.059Z,7.03
2022-10-04T07:06:40.924Z,7.18
2022-10-04T07:09:16.963Z,6.80
2022-10-04T07:11:50.719Z,7.20
2022-10-04T07:14:20.743Z,7.75
2022-10-04T07:16:50.566Z,7.60
2022-10-04T07:19:33.526Z,6.57
2022-10-04T07:22:12.948Z,7.60
2022-10-04T07:24:51.850Z,7.00
2022-10-04T07:27:24.155Z,6.80
2022-10-04T07:29:54.557Z,7.47
2022-10-04T07:32:23.551Z,6.78
2022-10-04T07:34:54.341Z,7.10
2022-10-04T07:37:25.814Z,6.97
2022-10-04T07:39:58.981Z,6.97
2022-10-04T07:42:29.974Z,6.03
2022-10-04T07:45:09.241Z,6.32
2022-10-04T07:47:36.105Z,6.93
2022-10-04T07:50:20.429Z,6.93
2022-10-04T07:52:53.708Z,7.30
2022-10-04T07:55:28.521Z,6.03
2022-10-04T07:58:28.682Z,7.35
2022-10-04T08:00:59.410Z,7.00
2022-10-04T08:03:39.063Z,6.63
2022-10-04T08:06:10.452Z,6.20
2022-10-04T08:08:54.240Z,6.45
2022-10-04T08:11:30.581Z,6.30
2022-10-04T08:14:04.982Z,6.43
2022-10-04T08:16:36.735Z,6.65
2022-10-04T08:19:30.194Z,6.55
2022-10-04T08:22:02.359Z,6.30
2022-10-04T08:24:42.438Z,6.35
2022-10-04T08:27:26.428Z,6.45
2022-10-04T08:30:05.025Z,6.75
2022-10-04T08:32:51.203Z,6.07
2022-10-04T08:35:31.331Z,6.80
2022-10-04T08:38:21.095Z,6.78
2022-10-04T08:41:48.099Z,6.05
2022-10-04T08:44:50.334Z,6.70
2022-10-04T08:47:44.308Z,6.20
2022-10-04T08:50:35.403Z,5.75
2022-10-04T08:53:42.571Z,5.70
2022-10-04T08:56:18.483Z,5.03
2022-10-04T08:59:24.153Z,4.80
2022-10-04T09:02:08.585Z,4.22
2022-10-04T09:05:13.008Z,4.80
2022-10-04T09:08:12.554Z,4.00
2022-10-04T09:10:56.816Z,4.07
2022-10-04T09:13:37.196Z,4.30
2022-10-04T09:16:14.874Z,3.63
2022-10-04T09:18:50.881Z,4.20
2022-10-04T09:21:27.794Z,3.67
2022-10-04T09:24:49.377Z,3.75
2022-10-04T09:27:54.104Z,3.67
2022-10-04T09:30:21.896Z,3.65
2022-10-04T09:33:20.764Z,3.10
2022-10-04T09:36:31.158Z,3.63
2022-10-04T09:39:30.491Z,3.30
2022-10-04T09:42:42.065Z,3.80
2022-10-04T09:45:31.762Z,3.10
2022-10-04T09:48:19.700Z,3.17
2022-10-04T09:51:09.737Z,3.42
2022-10-04T09:53:50.630Z,3.70
2022-10-04T09:56:45.220Z,2.72
2022-10-04T09:59:34.543Z,3.00
2022-10-04T10:02:32.211Z,2.72
2022-10-04T10:05:14.475Z,3.08
2022-10-04T10:07:49.844Z,2.92
2022-10-04T10:10:23.266Z,1.88
2022-10-04T10:13:09.349Z,2.40
2022-10-04T10:15:50.734Z,2.45
2022-10-04T10:18:28.466Z,2.50
2022-10-04T10:21:08.066Z,2.10
2022-10-04T10:24:14.198Z,1.83
2022-10-04T10:27:06.437Z,1.90
2022-10-04T10:29:59.440Z,1.75
2022-10-04T10:32:43.240Z,1.98
2022-10-04T10:35:24.481Z,1.80
2022-10-04T10:38:05.910Z,2.10
2022-10-04T10:40:41.658Z,1.63
2022-10-04T10:43:27.446Z,1.83
2022-10-04T10:46:03.573Z,2.00
2022-10-04T10:48:44.377Z,1.60
2022-10-04T10:51:16.980Z,1.73
2022-10-04T10:54:24.603Z,1.70
2022-10-04T10:57:05.148Z,1.60
2022-10-04T11:00:04.059Z,2.03
2022-10-04T11:03:17.360Z,1.60
2022-10-04T11:06:15.002Z,1.52
2022-10-04T11:09:16.694Z,1.85
2022-10-04T11:15:05.890Z,2.10
2022-10-04T11:17:55.314Z,1.70
2022-10-04T11:20:48.066Z,1.80
2022-10-04T11:23:50.009Z,1.60
2022-10-04T11:26:52.243Z,1.50
2022-10-04T11:29:32.587Z,1.70
2022-10-04T11:32:45.026Z,1.70
2022-10-04T11:35:45.671Z,2.00
2022-10-04T11:38:26.258Z,1.80
2022-10-04T11:41:11.914Z,1.67
2022-10-04T11:44:01.161Z,1.13
2022-10-04T11:46:40.628Z,1.40
2022-10-04T11:49:29.013Z,1.48
2022-10-04T11:52:25.881Z,1.48
2022-10-04T11:55:18.596Z,1.55
2022-10-04T11:57:51.057Z,1.50
2022-10-04T12:00:19.901Z,1.60
2022-10-04T12:03:01.142Z,1.27
2022-10-04T12:05:48.539Z,1.40
2022-10-04T12:08:33.979Z,1.65
2022-10-04T12:11:23.923Z,1.30
2022-10-04T12:14:10.074Z,1.73
2022-10-04T12:17:08.655Z,1.60
2022-10-04T12:19:53.987Z,1.50
2022-10-04T12:22:41.206Z,1.63
2022-10-04T12:25:38.656Z,1.10
2022-10-04T12:28:24.977Z,1.30
2022-10-04T12:31:20.076Z,1.42
2022-10-04T12:33:53.362Z,1.52
2022-10-04T12:36:31.673Z,2.10
2022-10-04T12:39:15.134Z,1.70
2022-10-04T12:41:49.120Z,1.42
2022-10-04T12:44:28.541Z,1.58
2022-10-04T12:47:29.449Z,1.73
2022-10-04T12:50:07.406Z,1.80
2022-10-04T12:52:46.783Z,1.33
2022-10-04T12:55:24.624Z,1.38
2022-10-04T12:57:57.938Z,1.60
2022-10-04T13:00:25.954Z,1.80
2022-10-04T13:03:22.887Z,2.00
2022-10-04T13:05:59.414Z,1.70
2022-10-04T13:08:40.473Z,1.65
2022-10-04T13:11:29.078Z,1.85
2022-10-04T13:14:17.991Z,1.48
2022-10-04T13:19:52.322Z,1.50
2022-10-04T13:22:54.863Z,1.85
2022-10-04T13:25:37.442Z,1.60
2022-10-04T13:28:14.820Z,1.67
2022-10-04T13:30:50.157Z,2.00
2022-10-04T13:33:24.899Z,1.80
2022-10-04T13:36:00.028Z,2.00
2022-10-04T13:38:57.366Z,1.60
2022-10-04T13:41:42.341Z,1.80
2022-10-04T13:44:34.759Z,1.77
2022-10-04T13:47:20.270Z,1.63
2022-10-04T13:50:04.335Z,1.58
2022-10-04T13:52:45.979Z,1.42
2022-10-04T13:57:52.019Z,1.55
2022-10-04T14:00:33.293Z,1.60
2022-10-04T14:03:21.553Z,2.08
2022-10-04T14:06:15.988Z,1.83
2022-10-04T14:08:59.078Z,1.40
2022-10-04T14:11:53.798Z,1.60
2022-10-04T14:14:44.845Z,1.80
2022-10-04T14:17:46.951Z,1.60
2022-10-04T14:20:45.031Z,1.70
2022-10-04T14:23:40.469Z,1.55
2022-10-04T14:26:40.530Z,1.65
2022-10-04T14:29:45.038Z,2.30
2022-10-04T14:32:56.351Z,2.00
2022-10-04T14:35:27.088Z,1.83
2022-10-04T14:40:49.629Z,1.80
2022-10-04T14:44:07.235Z,1.98
2022-10-04T14:46:46.902Z,2.03
2022-10-04T14:49:25.850Z,2.15
2022-10-04T14:52:05.076Z,2.00
2022-10-04T14:54:41.993Z,1.75
2022-10-04T14:57:17.348Z,2.03
2022-10-04T15:00:01.569Z,2.00
2022-10-04T15:03:09.368Z,2.22
2022-10-04T15:05:57.078Z,2.08
2022-10-04T15:08:41.123Z,1.67
2022-10-04T15:11:10.901Z,1.65
2022-10-04T15:13:48.302Z,2.10
2022-10-04T15:16:21.986Z,1.80
2022-10-04T15:18:57.245Z,1.63
2022-10-04T15:21:39.126Z,1.88
2022-10-04T15:24:26.179Z,1.65
2022-10-04T15:27:35.059Z,1.90
2022-10-04T15:30:12.505Z,2.00
2022-10-04T15:32:46.548Z,2.00
2022-10-04T15:35:27.383Z,1.90
2022-10-04T15:38:00.727Z,1.83
2022-10-04T15:40:39.448Z,1.88
2022-10-04T15:43:23.485Z,1.85
2022-10-04T15:46:03.363Z,1.70
2022-10-04T15:48:53.141Z,2.25
2022-10-04T15:51:40.602Z,1.83
2022-10-04T15:54:18.588Z,1.70
2022-10-04T15:56:52.853Z,1.67
2022-10-04T15:59:40.617Z,1.80
2022-10-04T16:02:26.972Z,1.90
2022-10-04T16:05:10.803Z,1.67
2022-10-04T16:08:05.645Z,1.45
2022-10-04T16:11:06.957Z,2.15
2022-10-04T16:14:07.183Z,2.00
2022-10-04T16:16:58.128Z,1.75
2022-10-04T16:19:42.936Z,2.20
2022-10-04T16:22:13.605Z,1.92
2022-10-04T16:24:45.642Z,2.72
2022-10-04T16:27:50.326Z,2.00
2022-10-04T16:30:26.936Z,2.30
2022-10-04T16:33:09.914Z,2.78
2022-10-04T16:35:41.793Z,2.00
2022-10-04T16:38:21.142Z,2.20
2022-10-04T16:41:07.136Z,2.20
2022-10-04T16:43:37.203Z,2.40
2022-10-04T16:46:12.520Z,2.08
2022-10-04T16:48:48.811Z,2.20
2022-10-04T16:51:35.103Z,2.00
2022-10-04T16:54:15.197Z,1.92
2022-10-04T16:57:12.941Z,2.05
2022-10-04T16:59:52.942Z,2.10
2022-10-04T17:02:58.269Z,2.20
2022-10-04T17:05:45.986Z,2.38
2022-10-04T17:08:23.585Z,1.88
2022-10-04T17:11:17.544Z,2.42
2022-10-04T17:13:56.637Z,2.55
2022-10-04T17:16:32.636Z,2.38
2022-10-04T17:19:25.067Z,2.38
2022-10-04T17:22:01.769Z,2.90
2022-10-04T17:24:42.299Z,2.80
2022-10-04T17:27:25.955Z,3.10
2022-10-04T17:30:16.057Z,3.25
2022-10-04T17:33:03.271Z,3.60
2022-10-04T17:36:02.611Z,3.53
2022-10-04T17:38:39.929Z,3.28
2022-10-04T17:41:16.930Z,3.05
2022-10-04T17:44:12.427Z,2.58
2022-10-04T17:46:46.404Z,3.13
2022-10-04T17:49:22.720Z,3.28
2022-10-04T17:51:53.749Z,3.10
2022-10-04T17:54:24.749Z,2.78
2022-10-04T17:57:09.200Z,2.97
2022-10-04T17:59:42.245Z,3.42
2022-10-04T18:02:17.428Z,3.00
2022-10-04T18:04:50.467Z,3.15
2022-10-04T18:07:21.149Z,3.15
2022-10-04T18:09:51.529Z,3.03
2022-10-04T18:12:27.161Z,2.92
2022-10-04T18:15:02.404Z,3.50
2022-10-04T18:17:36.549Z,3.65
2022-10-04T18:20:27.680Z,3.38
2022-10-04T18:23:00.151Z,3.95
2022-10-04T18:28:01.292Z,3.90
2022-10-04T18:30:27.949Z,3.92
2022-10-04T18:32:56.523Z,4.13
2022-10-04T18:35:26.270Z,3.60
2022-10-04T18:37:55.121Z,4.18
2022-10-04T18:40:24.145Z,4.40
2022-10-04T18:42:53.382Z,4.35
2022-10-04T18:45:23.296Z,3.90
2022-10-04T18:47:50.550Z,3.90
2022-10-04T18:50:31.505Z,4.13
2022-10-04T18:53:15.836Z,3.85
2022-10-04T18:55:55.987Z,4.07
2022-10-04T18:58:41.603Z,4.10
2022-10-04T19:01:31.992Z,3.83
2022-10-04T19:04:02.853Z,7.80
2022-10-04T19:06:33.815Z,6.18
2022-10-04T19:09:10.435Z,5.68
2022-10-04T19:11:41.582Z,5.10
2022-10-04T19:14:18.159Z,4.95
2022-10-04T19:16:52.481Z,4.78
2022-10-04T19:19:39.414Z,4.63
2022-10-04T19:22:18.408Z,4.18
2022-10-04T19:25:07.911Z,4.50
2022-10-04T19:27:38.381Z,4.30
2022-10-04T19:30:17.574Z,5.18
2022-10-04T19:33:06.755Z,6.80
2022-10-04T19:35:50.324Z,9.80
2022-10-04T19:38:43.274Z,17.38
2022-10-04T19:41:20.143Z,15.80
2022-10-04T19:43:54.584Z,14.57
2022-10-04T19:46:32.517Z,9.93
2022-10-04T19:48:59.245Z,8.93
2022-10-04T19:51:32.406Z,6.40
2022-10-04T19:54:10.852Z,6.43
2022-10-04T19:56:45.285Z,6.20
2022-10-04T19:59:16.785Z,5.93
2022-10-04T20:01:43.391Z,5.90
2022-10-04T20:04:13.359Z,5.22
2022-10-04T20:06:48.666Z,4.65
2022-10-04T20:09:29.982Z,4.35
2022-10-04T20:11:57.286Z,4.13
2022-10-04T20:14:43.602Z,3.72
2022-10-04T20:17:29.479Z,3.78
2022-10-04T20:19:56.164Z,4.00
2022-10-04T20:22:49.925Z,4.18
2022-10-04T20:25:48.805Z,3.88
2022-10-04T20:28:38.248Z,3.88
2022-10-04T20:31:06.101Z,3.92
2022-10-04T20:33:46.758Z,4.05
2022-10-04T20:36:50.736Z,4.45
2022-10-04T20:39:58.507Z,4.75
2022-10-04T20:42:33.408Z,4.68
2022-10-04T20:45:02.576Z,5.15
2022-10-04T20:47:36.788Z,5.05
2022-10-04T20:50:06.005Z,4.80
2022-10-04T20:52:36.619Z,4.82
2022-10-04T20:55:15.343Z,4.93
2022-10-04T20:57:41.958Z,5.38
2022-10-04T21:00:21.409Z,5.35
2022-10-04T21:02:48.685Z,5.00
2022-10-04T21:05:21.380Z,5.38
2022-10-04T21:07:49.252Z,5.65
2022-10-04T21:10:18.389Z,5.75
2022-10-04T21:12:45.076Z,5.40
2022-10-04T21:15:20.859Z,6.05
2022-10-04T21:18:02.191Z,5.82
2022-10-04T21:20:42.801Z,6.28
2022-10-04T21:23:17.497Z,6.55
2022-10-04T21:25:44.172Z,7.05
2022-10-04T21:28:34.274Z,6.72
2022-10-04T21:31:02.586Z,6.05
2022-10-04T21:33:32.310Z,5.85
2022-10-04T21:35:58.906Z,6.28
2022-10-04T21:38:27.508Z,6.45
2022-10-04T21:40:54.383Z,6.47
2022-10-04T21:43:21.001Z,7.13
2022-10-04T21:45:47.612Z,6.85
2022-10-04T21:48:14.173Z,6.38
2022-10-04T21:50:40.985Z,6.82
2022-10-04T21:53:07.754Z,6.50
2022-10-04T21:55:35.660Z,6.63
2022-10-04T21:58:02.217Z,6.60
2022-10-04T22:00:28.742Z,6.85
2022-10-04T22:02:55.318Z,7.07
2022-10-04T22:05:21.899Z,6.55
2022-10-04T22:07:48.501Z,6.93
2022-10-04T22:10:15.151Z,7.07
2022-10-04T22:12:43.172Z,7.65
2022-10-04T22:15:09.788Z,6.82
2022-10-04T22:17:36.363Z,7.65
2022-10-04T22:20:03.854Z,7.57
2022-10-04T22:22:30.469Z,8.00
2022-10-04T22:24:57.059Z,7.20
2022-10-04T22:27:23.672Z,7.78
2022-10-04T22:29:54.587Z,8.07
2022-10-04T22:32:23.491Z,8.02
2022-10-04T22:34:50.269Z,7.90
2022-10-04T22:37:23.973Z,7.25
2022-10-04T22:39:51.371Z,8.20
2022-10-04T22:42:18.958Z,8.02
2022-10-04T22:44:45.644Z,8.23
2022-10-04T22:47:14.957Z,8.18
2022-10-04T22:49:43.966Z,8.07
2022-10-04T22:52:14.047Z,7.28
2022-10-04T22:54:44.676Z,8.00
2022-10-04T22:57:12.005Z,7.95
2022-10-04T22:59:40.748Z,7.70
2022-10-04T23:02:13.382Z,7.82
2022-10-04T23:04:44.240Z,8.38
2022-10-04T23:07:11.069Z,8.02
2022-10-04T23:09:37.642Z,8.00
2022-10-04T23:12:07.479Z,8.27
2022-10-04T23:14:35.654Z,8.25
2022-10-04T23:17:09.283Z,8.18
2022-10-04T23:19:35.862Z,8.15
2022-10-04T23:22:12.333Z,7.07
2022-10-04T23:24:38.936Z,7.68
2022-10-04T23:27:14.381Z,7.85
2022-10-04T23:29:41.028Z,7.60
2022-10-04T23:32:10.159Z,8.32
2022-10-04T23:34:38.354Z,7.78
2022-10-04T23:37:15.777Z,7.40
2022-10-04T23:39:42.938Z,8.00
2022-10-04T23:42:16.906Z,7.75
2022-10-04T23:44:43.813Z,8.43
2022-10-04T23:47:14.085Z,7.78
2022-10-04T23:49:41.116Z,8.20
2022-10-04T23:52:16.260Z,7.82
2022-10-04T23:54:42.850Z,7.63
2022-10-04T23:57:10.462Z,8.52
2022-10-04T23:59:38.638Z,8.25
